Time;durP1;ratioP1;P1;durP2;ratioP2;P2;SDS_P1;SDS_P2;PMS_P1;PMS_P2;Temp;Humidity;BMP_temperature;BMP_pressure;BME280_temperature;BME280_humidity;BME280_pressure;Samples;Min_cycle;Max_cycle;Signal;HPM_P1;HPM_P2
2022/12/07 06:00:25;;;;;;;8.50;7.70;;;5.60;97.20;;;;;;1706815;28;20186;-75
2022/12/07 06:01:16;;;;;;;8.45;7.65;;;5.60;97.20;;;;;;1706985;28;20562;-74
2022/12/07 06:02:09;;;;;;;8.60;7.80;;;5.60;97.20;;;;;;1707097;28;20229;-73
2022/12/07 06:03:00;;;;;;;8.88;7.97;;;5.60;97.20;;;;;;1705914;28;20226;-74
2022/12/07 06:03:51;;;;;;;8.50;7.70;;;5.60;97.20;;;;;;1706878;28;20206;-74
2022/12/07 06:04:44;;;;;;;8.80;8.02;;;5.60;97.20;;;;;;1707190;28;20237;-74
2022/12/07 06:05:36;;;;;;;8.90;8.10;;;5.60;97.20;;;;;;1706875;29;20236;-74
2022/12/07 06:06:26;;;;;;;8.23;7.38;;;5.60;97.20;;;;;;1707161;28;20202;-73
2022/12/07 06:07:18;;;;;;;8.47;7.67;;;5.60;97.20;;;;;;1706886;28;20206;-73
2022/12/07 06:08:09;;;;;;;9.20;8.35;;;5.60;97.20;;;;;;1707097;28;20210;-73
2022/12/07 06:09:00;;;;;;;8.67;7.90;;;5.60;97.20;;;;;;1706803;28;20202;-74
2022/12/07 06:09:52;;;;;;;8.65;7.82;;;5.60;97.20;;;;;;1707184;28;20209;-75
2022/12/07 06:10:44;;;;;;;7.63;6.93;;;5.60;97.20;;;;;;1707108;28;20720;-74
2022/12/07 06:12:46;;;;;;;14.18;11.80;;;5.60;97.20;;;;;;1700059;29;20732;-74
2022/12/07 06:13:36;;;;;;;12.50;11.20;;;5.60;97.20;;;;;;1700533;29;20261;-73
2022/12/07 06:14:28;;;;;;;11.30;10.10;;;5.60;97.20;;;;;;1700564;29;20258;-73
2022/12/07 06:15:20;;;;;;;12.20;10.50;;;5.60;97.20;;;;;;1704626;29;20204;-73
2022/12/07 06:16:12;;;;;;;12.55;10.77;;;5.60;97.20;;;;;;1707233;28;20664;-73
2022/12/07 06:17:03;;;;;;;11.18;9.93;;;5.60;97.20;;;;;;1706800;28;20249;-73
2022/12/07 06:17:54;;;;;;;12.60;10.23;;;5.60;97.20;;;;;;1707109;28;20217;-73
2022/12/07 06:18:46;;;;;;;9.80;8.80;;;5.60;97.20;;;;;;1707105;28;20202;-73
2022/12/07 06:19:37;;;;;;;11.95;9.15;;;5.60;97.20;;;;;;1706914;28;20218;-73
2022/12/07 06:20:28;;;;;;;12.47;10.43;;;5.60;97.20;;;;;;1706800;28;20197;-72
2022/12/07 06:21:19;;;;;;;10.15;9.15;;;5.60;97.20;;;;;;1706898;29;20210;-72
2022/12/07 06:22:11;;;;;;;11.83;9.70;;;5.60;97.20;;;;;;1707214;28;20212;-73
2022/12/07 06:23:02;;;;;;;11.23;9.88;;;5.60;97.20;;;;;;1706594;29;20738;-73
2022/12/07 06:23:54;;;;;;;10.13;9.10;;;5.60;97.20;;;;;;1707174;29;20611;-73
2022/12/07 06:24:46;;;;;;;9.73;8.77;;;5.60;97.20;;;;;;1707121;28;20229;-73
2022/12/07 06:25:37;;;;;;;9.10;8.20;;;5.60;97.20;;;;;;1706910;29;20712;-72
2022/12/07 06:26:29;;;;;;;8.83;8.03;;;5.60;97.20;;;;;;1707154;28;20540;-72
2022/12/07 06:27:19;;;;;;;10.48;8.35;;;5.60;97.20;;;;;;1703715;29;20206;-72
2022/12/07 06:28:11;;;;;;;9.37;8.47;;;5.60;97.20;;;;;;1700535;29;20203;-72
2022/12/07 06:29:02;;;;;;;9.40;8.50;;;5.60;97.20;;;;;;1700576;29;20211;-72
2022/12/07 06:29:53;;;;;;;8.63;7.77;;;5.60;97.20;;;;;;1700579;29;20203;-73
2022/12/07 06:30:44;;;;;;;8.68;7.70;;;5.60;97.20;;;;;;1700259;29;20231;-72
2022/12/07 06:31:38;;;;;;;8.13;7.43;;;5.60;97.20;;;;;;1700524;29;20653;-73
2022/12/07 06:32:29;;;;;;;7.03;6.40;;;5.60;97.20;;;;;;1700592;29;20207;-72
2022/12/07 06:33:20;;;;;;;7.60;6.90;;;5.60;97.20;;;;;;1699888;29;20203;-73
2022/12/07 06:34:13;;;;;;;7.70;7.00;;;5.60;97.20;;;;;;1700424;29;20206;-72
2022/12/07 06:35:05;;;;;;;8.25;7.32;;;5.70;97.20;;;;;;1700435;29;20203;-71
2022/12/07 06:35:56;;;;;;;7.55;6.85;;;5.70;97.20;;;;;;1700495;29;20210;-70
2022/12/07 06:36:51;;;;;;;7.60;6.90;;;5.70;97.20;;;;;;1700309;29;20210;-71
2022/12/07 06:37:41;;;;;;;12.45;11.07;;;5.70;97.20;;;;;;1700402;29;20265;-71
2022/12/07 06:38:33;;;;;;;12.63;11.30;;;5.70;97.20;;;;;;1700535;29;20273;-73
2022/12/07 06:39:26;;;;;;;12.93;11.55;;;5.70;97.20;;;;;;1703313;29;20485;-73
2022/12/07 06:40:17;;;;;;;13.68;11.82;;;5.70;97.20;;;;;;1706691;29;20206;-73
2022/12/07 06:41:08;;;;;;;13.60;11.70;;;5.70;97.20;;;;;;1706949;29;20214;-72
2022/12/07 06:42:00;;;;;;;12.40;11.10;;;5.70;97.20;;;;;;1706825;29;20206;-73
2022/12/07 06:42:51;;;;;;;12.93;10.50;;;5.70;97.20;;;;;;1706463;29;20206;-73
2022/12/07 06:43:42;;;;;;;13.07;11.47;;;5.70;97.20;;;;;;1706971;28;20257;-75
2022/12/07 06:44:34;;;;;;;12.23;10.93;;;5.70;97.20;;;;;;1706317;29;20205;-74
2022/12/07 06:45:25;;;;;;;17.08;11.68;;;5.70;97.20;;;;;;1701838;28;20683;-75
2022/12/07 06:46:17;;;;;;;12.90;10.60;;;5.80;97.20;;;;;;1703559;29;20581;-75
2022/12/07 06:47:09;;;;;;;11.40;10.20;;;5.80;97.20;;;;;;1707958;28;20202;-75
2022/12/07 06:48:01;;;;;;;11.63;10.40;;;5.80;97.20;;;;;;1708242;28;20199;-75
2022/12/07 06:48:52;;;;;;;11.98;10.15;;;5.80;97.20;;;;;;1708372;28;20256;-75
2022/12/07 06:49:43;;;;;;;9.60;8.60;;;5.80;97.20;;;;;;1708042;28;20234;-75
2022/12/07 06:50:34;;;;;;;10.02;8.60;;;5.80;97.20;;;;;;1703758;28;20239;-75
2022/12/07 06:51:26;;;;;;;10.30;8.70;;;5.80;97.20;;;;;;1701511;29;20222;-75
2022/12/07 06:52:17;;;;;;;9.23;8.43;;;5.80;97.20;;;;;;1701421;29;20203;-75
2022/12/07 06:53:09;;;;;;;10.77;9.47;;;5.80;97.20;;;;;;1701033;29;20209;-75
2022/12/07 06:54:00;;;;;;;13.10;11.10;;;5.80;97.20;;;;;;1701334;29;20238;-74
2022/12/07 06:54:52;;;;;;;13.97;10.67;;;5.80;97.20;;;;;;1701499;29;20203;-75
2022/12/07 06:55:43;;;;;;;12.70;9.90;;;5.80;97.20;;;;;;1702444;29;20207;-73
2022/12/07 06:56:34;;;;;;;11.17;9.80;;;5.80;97.20;;;;;;1705578;29;20213;-74
2022/12/07 06:57:25;;;;;;;10.90;9.50;;;5.80;97.20;;;;;;1707576;28;20590;-74
2022/12/07 06:58:17;;;;;;;9.47;8.57;;;5.80;97.20;;;;;;1701411;29;20685;-74
2022/12/07 06:59:09;;;;;;;9.07;8.10;;;5.70;97.20;;;;;;1701459;29;20478;-74
2022/12/07 07:00:00;;;;;;;8.05;7.25;;;5.70;97.20;;;;;;1701472;29;20266;-74
2022/12/07 07:00:52;;;;;;;7.73;7.03;;;5.70;97.20;;;;;;1701536;29;20223;-74
2022/12/07 07:01:43;;;;;;;7.50;6.70;;;5.70;97.20;;;;;;1703541;29;20457;-74
2022/12/07 07:02:36;;;;;;;9.17;7.53;;;5.70;97.20;;;;;;1707629;28;20217;-75
2022/12/07 07:03:27;;;;;;;8.10;7.30;;;5.70;97.20;;;;;;1708030;28;20703;-73
2022/12/07 07:04:18;;;;;;;7.40;6.60;;;5.70;97.20;;;;;;1707899;28;20730;-73
2022/12/07 07:05:09;;;;;;;8.70;7.80;;;5.70;97.20;;;;;;1708280;28;20692;-73
2022/12/07 07:06:01;;;;;;;8.73;7.60;;;5.60;97.20;;;;;;1708174;28;20680;-73
2022/12/07 07:06:51;;;;;;;8.55;7.65;;;5.60;97.20;;;;;;1708007;28;20214;-73
2022/12/07 07:07:43;;;;;;;8.03;7.23;;;5.60;97.20;;;;;;1708094;28;20206;-72
2022/12/07 07:08:34;;;;;;;8.25;7.50;;;5.60;97.20;;;;;;1708137;28;20214;-73
2022/12/07 07:09:26;;;;;;;8.23;7.43;;;5.60;97.20;;;;;;1708103;28;20213;-73
2022/12/07 07:10:17;;;;;;;8.38;7.57;;;5.60;97.20;;;;;;1708017;28;20213;-73
2022/12/07 07:11:09;;;;;;;7.43;6.73;;;5.60;97.20;;;;;;1708189;28;20297;-73
2022/12/07 07:12:00;;;;;;;8.02;7.22;;;5.50;97.20;;;;;;1708129;28;20289;-73
2022/12/07 07:12:52;;;;;;;9.23;8.33;;;5.50;97.20;;;;;;1707713;28;20203;-73
2022/12/07 07:13:44;;;;;;;8.27;7.35;;;5.50;97.20;;;;;;1707044;28;20454;-73
2022/12/07 07:14:36;;;;;;;10.30;8.10;;;5.40;97.20;;;;;;1708049;28;20221;-73
2022/12/07 07:15:28;;;;;;;8.77;7.88;;;5.40;97.20;;;;;;1707877;28;20229;-74
2022/12/07 07:16:18;;;;;;;9.30;8.00;;;5.40;97.20;;;;;;1708029;28;20214;-74
2022/12/07 07:17:10;;;;;;;8.30;7.50;;;5.30;97.20;;;;;;1708029;28;20198;-72
2022/12/07 07:18:03;;;;;;;8.73;7.93;;;5.30;97.20;;;;;;1708172;28;20199;-73
2022/12/07 07:18:54;;;;;;;9.05;8.15;;;5.30;97.20;;;;;;1708167;29;20261;-72
2022/12/07 07:19:45;;;;;;;9.70;8.80;;;5.30;97.20;;;;;;1708049;28;20218;-72
2022/12/07 07:20:37;;;;;;;9.93;8.97;;;5.30;97.20;;;;;;1708086;28;20229;-73
2022/12/07 07:21:28;;;;;;;9.70;8.80;;;5.30;97.20;;;;;;1708217;28;20217;-73
2022/12/07 07:22:19;;;;;;;8.63;7.83;;;5.20;97.20;;;;;;1708039;28;20226;-74
2022/12/07 07:23:10;;;;;;;10.02;9.05;;;5.20;97.20;;;;;;1707684;28;20207;-74
2022/12/07 07:24:02;;;;;;;9.50;8.60;;;5.20;97.20;;;;;;1707951;28;20205;-73
2022/12/07 07:24:52;;;;;;;8.93;8.13;;;5.20;97.20;;;;;;1707418;28;20261;-72
2022/12/07 07:25:45;;;;;;;9.40;8.50;;;5.20;97.20;;;;;;1704814;28;20249;-74
2022/12/07 07:26:35;;;;;;;11.15;10.00;;;5.20;97.20;;;;;;1701402;29;20214;-73
2022/12/07 07:27:27;;;;;;;9.07;8.17;;;5.20;97.20;;;;;;1701369;29;20217;-74
2022/12/07 07:28:19;;;;;;;9.40;8.40;;;5.20;97.20;;;;;;1701453;29;20728;-74
2022/12/07 07:29:10;;;;;;;9.82;8.85;;;5.10;97.20;;;;;;1701487;29;20568;-74
2022/12/07 07:30:01;;;;;;;9.90;8.83;;;5.10;97.20;;;;;;1701165;29;20257;-74
2022/12/07 07:30:52;;;;;;;9.93;8.95;;;5.10;97.20;;;;;;1707137;28;20466;-74
2022/12/07 07:31:44;;;;;;;10.50;9.40;;;5.10;97.20;;;;;;1707538;28;20199;-75
2022/12/07 07:32:35;;;;;;;9.80;8.80;;;5.10;97.20;;;;;;1707398;28;20203;-74
2022/12/07 07:33:28;;;;;;;10.40;9.37;;;5.10;97.20;;;;;;1707830;28;20285;-74
2022/12/07 07:34:18;;;;;;;10.30;9.35;;;5.10;97.20;;;;;;1707789;28;20221;-74
2022/12/07 07:35:10;;;;;;;10.23;9.30;;;5.10;97.20;;;;;;1707860;28;20202;-74
2022/12/07 07:36:01;;;;;;;10.32;9.32;;;5.10;97.20;;;;;;1707846;28;20821;-74
2022/12/07 07:36:53;;;;;;;9.83;8.83;;;5.10;97.20;;;;;;1707619;28;20199;-74
2022/12/07 07:37:43;;;;;;;10.75;9.65;;;5.10;97.20;;;;;;1707620;28;20213;-74
2022/12/07 07:38:35;;;;;;;11.20;9.97;;;5.10;97.20;;;;;;1707410;28;20674;-73
2022/12/07 07:39:26;;;;;;;10.13;9.20;;;5.10;97.20;;;;;;1705913;28;20668;-74
2022/12/07 07:40:18;;;;;;;11.13;10.03;;;5.10;97.20;;;;;;1701108;29;20670;-74
2022/12/07 07:41:08;;;;;;;11.55;10.23;;;5.20;97.20;;;;;;1701257;29;20751;-74
2022/12/07 07:42:00;;;;;;;10.30;9.30;;;5.20;97.20;;;;;;1701144;29;20563;-74
2022/12/07 07:42:53;;;;;;;10.68;9.57;;;5.20;97.20;;;;;;1700720;29;20238;-74
2022/12/07 07:43:44;;;;;;;10.73;9.63;;;5.20;97.20;;;;;;1701168;29;20570;-75
2022/12/07 07:44:35;;;;;;;11.27;10.10;;;5.20;97.20;;;;;;1701241;29;20211;-74
2022/12/07 07:45:27;;;;;;;10.90;9.80;;;5.20;97.20;;;;;;1701280;29;20206;-74
2022/12/07 07:46:18;;;;;;;11.45;10.35;;;5.20;97.20;;;;;;1701250;29;20587;-74
2022/12/07 07:47:10;;;;;;;11.23;9.60;;;5.20;97.20;;;;;;1701178;29;20572;-74
2022/12/07 07:48:01;;;;;;;10.38;9.38;;;5.20;97.20;;;;;;1701347;29;20748;-73
2022/12/07 07:48:54;;;;;;;11.07;9.95;;;5.20;97.20;;;;;;1701404;29;20231;-74
2022/12/07 07:49:45;;;;;;;11.40;10.20;;;5.30;97.20;;;;;;1701388;29;20203;-73
2022/12/07 07:50:37;;;;;;;11.40;10.30;;;5.30;97.20;;;;;;1701325;29;20716;-73
2022/12/07 07:51:27;;;;;;;11.70;10.63;;;5.30;97.20;;;;;;1701291;29;20207;-74
2022/12/07 07:52:19;;;;;;;11.53;10.37;;;5.30;97.20;;;;;;1701337;29;20203;-73
2022/12/07 07:53:10;;;;;;;10.80;9.70;;;5.30;97.20;;;;;;1700971;29;20214;-74
2022/12/07 07:54:02;;;;;;;11.13;10.00;;;5.30;97.20;;;;;;1701121;29;20211;-74
2022/12/07 07:54:52;;;;;;;10.40;9.40;;;5.30;97.20;;;;;;1700960;29;20211;-74
2022/12/07 07:55:51;;;;;;;10.60;9.60;;;5.30;97.20;;;;;;1702105;29;20213;-74
2022/12/07 07:56:42;;;;;;;10.80;9.80;;;5.30;97.20;;;;;;1701043;29;20202;-75
2022/12/07 07:57:34;;;;;;;9.40;8.50;;;5.30;97.20;;;;;;1701263;29;20211;-74
2022/12/07 07:58:25;;;;;;;11.30;10.10;;;5.30;97.20;;;;;;1701307;29;20594;-74
2022/12/07 07:59:16;;;;;;;11.00;9.90;;;5.40;97.20;;;;;;1701298;29;20639;-74
2022/12/07 08:00:11;;;;;;;11.83;10.63;;;5.40;97.20;;;;;;1701249;29;20551;-74
2022/12/07 08:01:04;;;;;;;12.02;10.82;;;5.40;97.20;;;;;;1701190;29;20590;-74
2022/12/07 08:01:56;;;;;;;12.48;11.18;;;5.40;97.20;;;;;;1705036;29;20202;-74
2022/12/07 08:02:47;;;;;;;11.73;10.63;;;5.40;97.20;;;;;;1707327;28;20206;-74
2022/12/07 08:03:38;;;;;;;10.60;9.60;;;5.40;97.20;;;;;;1707504;28;20206;-74
2022/12/07 08:04:30;;;;;;;10.73;9.65;;;5.40;97.20;;;;;;1707751;28;20209;-74
2022/12/07 08:05:22;;;;;;;10.90;9.80;;;5.40;97.20;;;;;;1707835;28;20673;-74
2022/12/07 08:06:13;;;;;;;9.93;8.93;;;5.40;97.20;;;;;;1707824;28;20692;-74
2022/12/07 08:07:05;;;;;;;10.93;9.83;;;5.40;97.20;;;;;;1707605;28;20570;-74
2022/12/07 08:07:57;;;;;;;11.07;9.93;;;5.40;97.20;;;;;;1707823;28;20217;-73
2022/12/07 08:08:49;;;;;;;10.65;9.55;;;5.40;97.20;;;;;;1707865;28;20233;-74
2022/12/07 08:09:39;;;;;;;10.45;9.32;;;5.40;97.20;;;;;;1707704;28;20210;-74
2022/12/07 08:10:32;;;;;;;11.50;10.40;;;5.40;97.20;;;;;;1707846;28;20229;-73
2022/12/07 08:11:22;;;;;;;10.65;9.40;;;5.40;97.20;;;;;;1707708;28;20453;-74
2022/12/07 08:12:14;;;;;;;10.13;9.10;;;5.50;97.20;;;;;;1707804;28;20214;-74
2022/12/07 08:13:11;;;;;;;10.35;9.25;;;5.40;97.20;;;;;;1707314;28;20217;-74
2022/12/07 08:14:02;;;;;;;10.02;9.13;;;5.50;97.20;;;;;;1707628;28;20207;-74
2022/12/07 08:14:53;;;;;;;9.82;8.90;;;5.50;97.20;;;;;;1707802;28;20229;-74
2022/12/07 08:15:48;;;;;;;10.63;9.60;;;5.50;97.20;;;;;;1703902;28;20242;-74
2022/12/07 08:16:38;;;;;;;10.15;9.00;;;5.50;97.20;;;;;;1700849;29;20568;-75
2022/12/07 08:17:30;;;;;;;10.63;9.63;;;5.50;97.20;;;;;;1701227;29;20217;-74
2022/12/07 08:18:22;;;;;;;11.07;9.60;;;5.50;97.20;;;;;;1701176;29;20203;-74
2022/12/07 08:19:13;;;;;;;11.00;10.00;;;5.50;97.20;;;;;;1701111;29;20235;-74
2022/12/07 08:20:07;;;;;;;10.77;9.68;;;5.50;97.20;;;;;;1701049;29;20210;-74
2022/12/07 08:21:00;;;;;;;10.75;9.70;;;5.50;97.20;;;;;;1701057;29;20599;-75
2022/12/07 08:21:51;;;;;;;9.90;9.00;;;5.60;97.20;;;;;;1701153;29;20265;-74
2022/12/07 08:22:43;;;;;;;9.10;8.20;;;5.60;97.20;;;;;;1700550;29;20266;-75
2022/12/07 08:23:33;;;;;;;10.38;9.38;;;5.60;97.20;;;;;;1701121;29;20615;-74
2022/12/07 08:24:25;;;;;;;9.53;8.63;;;5.60;97.20;;;;;;1700961;29;20221;-74
2022/12/07 08:25:16;;;;;;;10.20;9.10;;;5.60;97.20;;;;;;1701039;29;20230;-74
2022/12/07 08:26:10;;;;;;;9.60;8.60;;;5.60;97.20;;;;;;1701126;29;20690;-74
2022/12/07 08:27:01;;;;;;;10.38;9.35;;;5.60;97.20;;;;;;1700841;29;20447;-74
2022/12/07 08:27:53;;;;;;;8.67;7.77;;;5.60;97.20;;;;;;1701202;29;20203;-74
2022/12/07 08:28:44;;;;;;;8.20;7.50;;;5.60;97.20;;;;;;1700991;29;20451;-74
2022/12/07 08:29:36;;;;;;;9.38;8.48;;;5.60;97.20;;;;;;1701034;29;20254;-74
2022/12/07 08:30:27;;;;;;;8.35;7.55;;;5.60;97.20;;;;;;1700919;29;20203;-74
2022/12/07 08:31:19;;;;;;;8.77;7.95;;;5.60;97.20;;;;;;1702218;29;20282;-74
2022/12/07 08:32:10;;;;;;;9.43;7.80;;;5.60;97.20;;;;;;1707777;28;20210;-74
2022/12/07 08:33:02;;;;;;;8.90;8.10;;;5.60;97.20;;;;;;1707150;28;20761;-74
2022/12/07 08:33:52;;;;;;;9.68;8.70;;;5.60;97.20;;;;;;1707617;28;20209;-74
2022/12/07 08:34:44;;;;;;;8.10;7.30;;;5.60;97.20;;;;;;1707599;28;20210;-74
2022/12/07 08:35:36;;;;;;;9.20;8.35;;;5.60;97.20;;;;;;1707617;28;20677;-73
2022/12/07 08:36:29;;;;;;;9.07;8.18;;;5.60;97.20;;;;;;1707735;28;20285;-74
2022/12/07 08:37:19;;;;;;;11.00;8.25;;;5.60;97.20;;;;;;1707395;28;20213;-75
2022/12/07 08:38:11;;;;;;;8.57;7.63;;;5.60;97.20;;;;;;1707601;28;20665;-74
2022/12/07 08:39:02;;;;;;;9.20;8.30;;;5.50;97.20;;;;;;1707496;28;20202;-74
2022/12/07 08:39:54;;;;;;;9.03;8.13;;;5.50;97.20;;;;;;1707709;28;20700;-74
2022/12/07 08:40:44;;;;;;;8.77;7.97;;;5.50;97.20;;;;;;1707501;28;20536;-74
2022/12/07 08:41:36;;;;;;;8.07;7.37;;;5.60;97.20;;;;;;1707635;28;20214;-75
2022/12/07 08:42:29;;;;;;;8.68;7.80;;;5.50;97.20;;;;;;1707601;28;20214;-74
2022/12/07 08:43:21;;;;;;;8.55;7.85;;;5.60;97.20;;;;;;1706946;28;20202;-74
2022/12/07 08:44:11;;;;;;;9.00;8.10;;;5.60;97.20;;;;;;1707562;28;20203;-74
2022/12/07 08:45:04;;;;;;;10.03;9.03;;;5.60;97.20;;;;;;1707471;28;20199;-75
2022/12/07 08:46:03;;;;;;;9.57;8.68;;;5.60;97.20;;;;;;1707414;28;20222;-74
2022/12/07 08:46:59;;;;;;;8.90;8.10;;;5.60;97.20;;;;;;1707416;28;20230;-73
2022/12/07 08:47:54;;;;;;;8.05;7.13;;;5.60;97.20;;;;;;1702908;28;20677;-74
2022/12/07 08:48:50;;;;;;;9.30;8.40;;;5.60;97.20;;;;;;1700945;29;20572;-73
2022/12/07 08:49:47;;;;;;;9.40;8.40;;;5.60;97.20;;;;;;1700918;29;20585;-74
2022/12/07 08:50:39;;;;;;;9.30;8.40;;;5.60;97.20;;;;;;1700837;29;20227;-74
2022/12/07 08:51:31;;;;;;;8.75;7.68;;;5.60;97.20;;;;;;1701020;29;20545;-74
2022/12/07 08:52:22;;;;;;;8.73;7.88;;;5.70;97.20;;;;;;1700837;29;20211;-74
2022/12/07 08:53:14;;;;;;;8.93;7.97;;;5.60;97.20;;;;;;1700412;29;20253;-74
2022/12/07 08:54:08;;;;;;;9.90;7.85;;;5.70;97.20;;;;;;1700803;29;20567;-74
2022/12/07 08:55:03;;;;;;;9.57;8.60;;;5.70;97.20;;;;;;1700826;29;20585;-74
2022/12/07 08:55:56;;;;;;;10.48;8.80;;;5.70;97.20;;;;;;1700870;29;20397;-74
2022/12/07 08:56:49;;;;;;;10.25;9.25;;;5.60;97.20;;;;;;1700704;29;20684;-74
2022/12/07 08:57:42;;;;;;;9.07;8.20;;;5.70;97.20;;;;;;1700845;29;20203;-74
2022/12/07 08:58:34;;;;;;;16.13;14.63;;;5.70;97.20;;;;;;1700890;29;20211;-74
2022/12/07 08:59:26;;;;;;;10.93;9.93;;;5.70;97.20;;;;;;1700836;29;20207;-73
2022/12/07 09:00:18;;;;;;;10.77;9.77;;;5.70;97.20;;;;;;1700789;29;20242;-74
2022/12/07 09:01:09;;;;;;;10.52;9.45;;;5.70;97.20;;;;;;1700943;29;20229;-74
2022/12/07 09:02:01;;;;;;;11.73;10.53;;;5.70;97.20;;;;;;1700756;29;20203;-74
2022/12/07 09:02:53;;;;;;;9.35;8.45;;;5.70;97.20;;;;;;1700418;29;20439;-74
2022/12/07 09:03:44;;;;;;;9.10;8.20;;;5.70;97.20;;;;;;1701824;29;20199;-74
2022/12/07 09:04:35;;;;;;;9.32;8.30;;;5.70;97.20;;;;;;1700793;29;20215;-74
2022/12/07 09:05:27;;;;;;;9.70;8.30;;;5.70;97.20;;;;;;1700906;29;20207;-75
2022/12/07 09:06:19;;;;;;;9.25;8.02;;;5.70;97.20;;;;;;1700575;29;20211;-74
2022/12/07 09:07:11;;;;;;;8.75;7.85;;;5.70;97.20;;;;;;1700173;29;20286;-74
2022/12/07 09:08:02;;;;;;;9.18;8.10;;;5.70;97.20;;;;;;1700720;29;20211;-74
2022/12/07 09:08:58;;;;;;;8.37;7.53;;;5.70;97.20;;;;;;1700966;29;20203;-74
2022/12/07 09:09:50;;;;;;;8.55;7.50;;;5.70;97.20;;;;;;1700967;29;20929;-74
2022/12/07 09:10:41;;;;;;;8.80;7.32;;;5.80;97.20;;;;;;1700755;29;20227;-73
2022/12/07 09:11:33;;;;;;;9.60;8.60;;;5.80;97.20;;;;;;1700962;29;20203;-74
2022/12/07 09:12:23;;;;;;;9.60;8.50;;;5.80;97.20;;;;;;1700801;29;20956;-74
2022/12/07 09:13:15;;;;;;;9.50;8.40;;;5.80;97.20;;;;;;1700390;29;20633;-74
2022/12/07 09:14:06;;;;;;;8.75;7.90;;;5.80;97.20;;;;;;1700605;29;20207;-75
2022/12/07 09:14:58;;;;;;;8.20;7.40;;;5.80;97.20;;;;;;1700735;29;20213;-73
2022/12/07 09:15:49;;;;;;;8.60;7.80;;;5.90;97.20;;;;;;1700816;29;20447;-74
2022/12/07 09:16:40;;;;;;;9.20;7.70;;;5.90;97.20;;;;;;1700597;29;20211;-73
2022/12/07 09:17:33;;;;;;;9.30;8.30;;;5.90;97.20;;;;;;1700918;29;20203;-74
2022/12/07 09:18:24;;;;;;;9.05;8.15;;;5.90;97.20;;;;;;1700714;29;20207;-73
2022/12/07 09:19:16;;;;;;;9.07;8.13;;;6.00;97.20;;;;;;1700798;29;20610;-74
2022/12/07 09:20:08;;;;;;;8.90;8.00;;;6.00;97.20;;;;;;1700727;29;20226;-73
2022/12/07 09:20:59;;;;;;;8.43;7.40;;;6.00;97.20;;;;;;1701525;28;20222;-74
2022/12/07 09:21:51;;;;;;;8.63;7.80;;;6.00;97.20;;;;;;1700863;29;20207;-73
2022/12/07 09:22:43;;;;;;;7.78;6.97;;;6.10;97.20;;;;;;1700217;29;20208;-74
2022/12/07 09:23:34;;;;;;;7.97;7.18;;;6.10;97.20;;;;;;1700848;29;20207;-73
2022/12/07 09:24:26;;;;;;;7.90;7.10;;;6.00;97.20;;;;;;1700554;29;20234;-74
2022/12/07 09:25:17;;;;;;;7.50;6.80;;;6.10;97.20;;;;;;1700825;29;20451;-74
2022/12/07 09:26:08;;;;;;;8.03;7.23;;;6.10;97.20;;;;;;1700826;29;20277;-72
2022/12/07 09:26:59;;;;;;;7.05;6.45;;;6.10;97.20;;;;;;1700402;29;20555;-72
2022/12/07 09:27:56;;;;;;;7.77;7.07;;;6.10;97.20;;;;;;1700806;29;20206;-72
2022/12/07 09:28:47;;;;;;;7.72;7.03;;;6.10;97.20;;;;;;1700763;29;20192;-72
2022/12/07 09:29:39;;;;;;;8.17;7.47;;;6.10;97.20;;;;;;1700650;29;20211;-72
2022/12/07 09:30:30;;;;;;;8.40;7.60;;;6.10;97.20;;;;;;1700607;29;20466;-72
2022/12/07 09:31:21;;;;;;;7.77;6.97;;;6.10;97.20;;;;;;1700643;29;20221;-72
2022/12/07 09:32:12;;;;;;;8.07;7.25;;;6.10;97.20;;;;;;1700841;29;20207;-71
2022/12/07 09:33:04;;;;;;;7.68;6.90;;;6.10;97.20;;;;;;1700216;29;20206;-72
2022/12/07 09:33:55;;;;;;;7.72;6.93;;;6.10;97.20;;;;;;1700566;29;20207;-72
2022/12/07 09:34:47;;;;;;;7.63;6.93;;;6.10;97.20;;;;;;1700567;29;20294;-72
2022/12/07 09:35:37;;;;;;;6.90;6.25;;;6.10;97.20;;;;;;1700676;29;20207;-72
2022/12/07 09:36:30;;;;;;;6.57;5.97;;;6.10;97.20;;;;;;1701610;29;20213;-72
2022/12/07 09:37:23;;;;;;;7.50;6.80;;;6.10;97.20;;;;;;1706936;28;20612;-71
2022/12/07 09:38:14;;;;;;;8.00;7.30;;;6.10;97.20;;;;;;1707303;29;20218;-72
2022/12/07 09:39:06;;;;;;;7.70;7.00;;;6.10;97.20;;;;;;1706930;28;20234;-71
2022/12/07 09:39:56;;;;;;;7.10;6.40;;;6.10;97.20;;;;;;1707256;28;20206;-72
2022/12/07 09:40:49;;;;;;;7.47;6.77;;;6.10;97.20;;;;;;1707200;28;20242;-72
2022/12/07 09:41:42;;;;;;;6.85;6.15;;;6.10;97.20;;;;;;1707312;28;20206;-72
2022/12/07 09:42:36;;;;;;;7.00;6.32;;;6.10;97.20;;;;;;1706763;28;20231;-73
2022/12/07 09:43:27;;;;;;;7.95;7.25;;;6.20;97.20;;;;;;1707304;28;20207;-72
2022/12/07 09:44:23;;;;;;;7.93;7.23;;;6.20;97.20;;;;;;1707066;28;20202;-72
2022/12/07 09:45:17;;;;;;;7.05;6.45;;;6.20;97.20;;;;;;1707215;28;20199;-72
2022/12/07 09:46:16;;;;;;;7.13;6.32;;;6.20;97.20;;;;;;1707161;29;20220;-72
2022/12/07 09:47:09;;;;;;;7.18;6.57;;;6.20;97.20;;;;;;1706920;28;20227;-71
2022/12/07 09:48:03;;;;;;;7.93;7.13;;;6.10;97.20;;;;;;1707119;28;20301;-71
2022/12/07 09:48:54;;;;;;;7.70;6.93;;;6.10;97.20;;;;;;1707341;28;20221;-72
2022/12/07 09:49:45;;;;;;;7.93;7.07;;;6.10;97.20;;;;;;1707148;28;20297;-72
2022/12/07 09:50:36;;;;;;;7.00;6.30;;;6.10;97.20;;;;;;1707047;28;20222;-71
2022/12/07 09:51:28;;;;;;;7.03;6.40;;;6.10;97.20;;;;;;1707338;28;20208;-72
2022/12/07 09:52:24;;;;;;;6.90;6.30;;;6.10;97.20;;;;;;1707091;28;20213;-72
2022/12/07 09:53:24;;;;;;;6.68;6.07;;;6.10;97.20;;;;;;1705083;28;20206;-72
2022/12/07 09:54:16;;;;;;;7.95;7.15;;;6.10;97.20;;;;;;1707125;28;20210;-71
2022/12/07 09:55:14;;;;;;;7.72;7.03;;;6.10;97.20;;;;;;1706831;28;20199;-71
2022/12/07 09:56:05;;;;;;;7.45;6.75;;;6.10;97.20;;;;;;1707192;28;20215;-72
2022/12/07 09:56:57;;;;;;;7.43;6.72;;;6.20;97.20;;;;;;1707040;28;20210;-72
2022/12/07 09:57:51;;;;;;;6.65;5.97;;;6.20;97.20;;;;;;1707236;28;20205;-72
2022/12/07 09:58:42;;;;;;;7.20;6.50;;;6.20;97.20;;;;;;1707054;28;20222;-72
2022/12/07 09:59:34;;;;;;;8.63;7.53;;;6.20;97.20;;;;;;1707262;28;20203;-71
2022/12/07 10:00:28;;;;;;;9.00;7.05;;;6.20;97.20;;;;;;1707112;28;20213;-71
2022/12/07 10:01:21;;;;;;;6.65;6.00;;;6.20;97.20;;;;;;1707144;28;20574;-72
2022/12/07 10:02:27;;;;;;;7.32;6.60;;;6.20;97.20;;;;;;1707212;29;20195;-72
2022/12/07 10:03:18;;;;;;;6.35;5.75;;;6.20;97.20;;;;;;1706580;29;20210;-72
2022/12/07 10:04:13;;;;;;;10.32;6.38;;;6.20;97.20;;;;;;1707113;28;20673;-72
2022/12/07 10:05:08;;;;;;;6.85;6.15;;;6.20;97.20;;;;;;1707201;28;20210;-72
2022/12/07 10:05:59;;;;;;;6.55;5.95;;;6.30;97.20;;;;;;1707129;28;20202;-72
2022/12/07 10:06:52;;;;;;;7.28;6.57;;;6.30;97.20;;;;;;1706867;28;20226;-72
2022/12/07 10:07:43;;;;;;;6.63;6.03;;;6.30;97.20;;;;;;1707117;28;20210;-72
2022/12/07 10:08:36;;;;;;;6.13;5.27;;;6.40;97.20;;;;;;1707254;28;20614;-72
2022/12/07 10:09:28;;;;;;;5.90;5.40;;;6.40;97.20;;;;;;1703909;28;20451;-72
2022/12/07 10:10:25;;;;;;;6.32;5.72;;;6.40;97.20;;;;;;1706151;29;20565;-72
2022/12/07 10:11:17;;;;;;;6.68;5.97;;;6.40;97.20;;;;;;1706612;28;20214;-71
2022/12/07 10:12:09;;;;;;;6.82;6.13;;;6.40;97.20;;;;;;1707146;29;20203;-72
2022/12/07 10:13:04;;;;;;;6.68;5.68;;;6.50;97.20;;;;;;1706743;28;20591;-73
2022/12/07 10:13:55;;;;;;;6.50;5.90;;;6.50;97.20;;;;;;1706965;28;20771;-72
2022/12/07 10:14:56;;;;;;;6.87;5.77;;;6.50;97.20;;;;;;1707166;28;20224;-72
2022/12/07 10:15:52;;;;;;;6.20;5.60;;;6.50;97.20;;;;;;1706801;28;20450;-72
2022/12/07 10:16:43;;;;;;;6.63;6.03;;;6.50;97.20;;;;;;1706782;29;20212;-72
2022/12/07 10:17:40;;;;;;;6.47;5.82;;;6.50;97.20;;;;;;1707148;28;20691;-72
2022/12/07 10:18:35;;;;;;;6.95;6.22;;;6.50;97.20;;;;;;1708045;28;20206;-71
2022/12/07 10:19:29;;;;;;;5.93;5.32;;;6.50;97.20;;;;;;1708466;28;20214;-72
2022/12/07 10:20:25;;;;;;;6.28;5.68;;;6.60;97.20;;;;;;1708121;28;20665;-72
2022/12/07 10:21:20;;;;;;;6.53;5.93;;;6.60;97.20;;;;;;1708487;28;20207;-72
2022/12/07 10:22:14;;;;;;;5.97;5.38;;;6.60;97.20;;;;;;1708435;29;20198;-71
2022/12/07 10:23:14;;;;;;;5.82;5.22;;;6.50;97.20;;;;;;1707888;28;20222;-72
2022/12/07 10:24:15;;;;;;;6.28;5.78;;;6.60;97.20;;;;;;1708310;28;20448;-72
2022/12/07 10:25:19;;;;;;;6.03;5.43;;;6.50;97.20;;;;;;1708418;28;20206;-72
2022/12/07 10:26:39;;;;;;;6.70;6.10;;;6.60;97.20;;;;;;1708585;28;20186;-72
2022/12/07 10:27:31;;;;;;;7.47;6.78;;;6.60;97.20;;;;;;1694528;29;20208;-72
2022/12/07 10:28:23;;;;;;;6.50;5.90;;;6.60;97.20;;;;;;1699802;28;20197;-72
2022/12/07 10:29:18;;;;;;;6.40;5.80;;;6.60;97.20;;;;;;1708493;28;20210;-72
2022/12/07 10:30:15;;;;;;;5.75;5.20;;;6.60;97.20;;;;;;1708337;29;20214;-72
2022/12/07 10:31:19;;;;;;;5.93;5.32;;;6.60;97.20;;;;;;1708398;28;20228;-72
2022/12/07 10:32:31;;;;;;;6.50;5.60;;;6.60;97.20;;;;;;1708578;28;20206;-72
2022/12/07 10:33:32;;;;;;;6.20;5.63;;;6.50;97.20;;;;;;1708338;29;20206;-72
2022/12/07 10:34:25;;;;;;;6.28;5.68;;;6.50;97.20;;;;;;1707941;29;20203;-72
2022/12/07 10:35:25;;;;;;;6.28;5.68;;;6.50;97.20;;;;;;1708356;28;20333;-72
2022/12/07 10:36:20;;;;;;;6.25;5.65;;;6.50;97.20;;;;;;1708363;28;20249;-72